Time;durP1;ratioP1;P1;durP2;ratioP2;P2;SDS_P1;SDS_P2;PMS_P1;PMS_P2;Temp;Humidity;BMP_temperature;BMP_pressure;BME280_temperature;BME280_humidity;BME280_pressure;Samples;Min_cycle;Max_cycle;Signal;HPM_P1;HPM_P2
2021/11/30 00:02:02;;;;;;;2.88;1.10;;;;;;;-148.56;100.00;61375.16;5002616;28;20771;-31
2021/11/30 00:05:26;;;;;;;1.92;1.27;;;;;;;-148.56;100.00;61375.16;5001401;28;20061;-30
2021/11/30 00:08:57;;;;;;;2.47;1.10;;;;;;;-148.56;100.00;61375.16;5004035;28;20026;-33
2021/11/30 00:12:22;;;;;;;2.95;1.20;;;;;;;-148.56;100.00;61375.16;5003831;28;20335;-34
2021/11/30 00:15:47;;;;;;;3.15;1.40;;;;;;;-148.56;100.00;61375.16;5000791;28;20029;-30
2021/11/30 00:19:11;;;;;;;1.95;1.20;;;;;;;-148.56;100.00;61375.16;5007931;28;20379;-32
2021/11/30 00:22:36;;;;;;;1.60;0.95;;;;;;;-148.56;100.00;61375.16;5005037;28;20030;-32
2021/11/30 00:25:59;;;;;;;2.33;1.17;;;;;;;-148.56;100.00;61375.16;5009074;28;20025;-34
2021/11/30 00:29:23;;;;;;;1.30;1.10;;;;;;;-148.56;100.00;61375.16;5007367;28;20112;-31
2021/11/30 00:32:49;;;;;;;2.90;1.20;;;;;;;-148.56;100.00;61375.16;5001365;28;20025;-31
2021/11/30 00:36:13;;;;;;;1.40;1.05;;;;;;;-148.56;100.00;61375.16;5008057;28;20497;-30
2021/11/30 00:39:37;;;;;;;2.58;1.08;;;;;;;-148.56;100.00;61375.16;5009084;28;20164;-31
2021/11/30 00:43:01;;;;;;;1.30;0.80;;;;;;;-148.56;100.00;61375.16;5009198;28;20369;-30
2021/11/30 00:46:36;;;;;;;1.92;1.05;;;;;;;-148.56;100.00;61375.16;5002387;28;20268;-30
2021/11/30 00:50:01;;;;;;;1.73;1.10;;;;;;;-148.56;100.00;61375.16;5008321;28;20497;-31
2021/11/30 00:53:24;;;;;;;2.70;0.90;;;;;;;-148.56;100.00;61375.16;5004773;28;20104;-34
2021/11/30 00:56:49;;;;;;;1.73;1.00;;;;;;;-148.56;100.00;61375.16;5008636;28;20064;-30
2021/11/30 01:00:15;;;;;;;1.55;0.88;;;;;;;-148.56;100.00;61375.16;5006777;28;20064;-33
2021/11/30 01:03:40;;;;;;;1.35;0.80;;;;;;;-148.56;100.00;61375.16;5005638;28;20084;-30
2021/11/30 01:07:04;;;;;;;2.28;0.88;;;;;;;-148.56;100.00;61375.16;5005302;28;20163;-28
2021/11/30 01:10:27;;;;;;;3.85;1.17;;;;;;;-148.56;100.00;61375.16;5010817;28;23041;-34
2021/11/30 01:13:51;;;;;;;5.85;1.30;;;;;;;-148.56;100.00;61375.16;5006098;28;20042;-30
2021/11/30 01:17:15;;;;;;;2.67;0.90;;;;;;;-148.56;100.00;61375.16;5001297;28;20032;-31
2021/11/30 01:20:39;;;;;;;2.38;0.85;;;;;;;-148.56;100.00;61375.16;5009175;28;20108;-33
2021/11/30 01:24:04;;;;;;;0.90;0.75;;;;;;;-148.56;100.00;61375.16;5008530;28;20155;-28
2021/11/30 01:27:27;;;;;;;1.08;0.65;;;;;;;-148.56;100.00;61375.16;5007576;28;20057;-33
2021/11/30 01:30:51;;;;;;;0.85;0.73;;;;;;;-148.56;100.00;61375.16;5004793;28;20109;-30
2021/11/30 01:34:15;;;;;;;1.98;0.68;;;;;;;-148.56;100.00;61375.16;5004423;28;20391;-30
2021/11/30 01:37:40;;;;;;;1.40;0.93;;;;;;;-148.56;100.00;61375.16;5005791;28;20056;-34
2021/11/30 01:41:06;;;;;;;1.65;1.00;;;;;;;-148.56;100.00;61375.16;5005221;28;20029;-29
2021/11/30 01:51:27;;;;;;;2.55;0.93;;;;;;;-148.56;100.00;61375.16;5006257;28;20063;-39
2021/11/30 01:54:51;;;;;;;3.03;0.65;;;;;;;-148.56;100.00;61375.16;5003785;28;20037;-31
2021/11/30 01:58:16;;;;;;;5.13;1.05;;;;;;;-148.56;100.00;61375.16;5003277;28;20517;-33
2021/11/30 02:01:40;;;;;;;1.33;0.70;;;;;;;-148.56;100.00;61375.16;5008286;28;20124;-29
2021/11/30 02:05:04;;;;;;;0.68;0.52;;;;;;;-148.56;100.00;61375.16;5005983;28;20057;-29
2021/11/30 02:08:28;;;;;;;1.83;0.80;;;;;;;-148.56;100.00;61375.16;5002246;28;20530;-32
2021/11/30 02:11:52;;;;;;;3.13;1.10;;;;;;;-148.56;100.00;61375.16;5006394;28;20108;-35
2021/11/30 02:15:16;;;;;;;2.45;0.63;;;;;;;-148.56;100.00;61375.16;5007114;28;20034;-30
2021/11/30 02:18:43;;;;;;;16.67;1.15;;;;;;;-148.56;100.00;61375.16;5004229;28;20029;-32
2021/11/30 02:22:11;;;;;;;2.63;1.00;;;;;;;-148.56;100.00;61375.16;4999102;28;20463;-33
2021/11/30 02:25:35;;;;;;;1.88;0.75;;;;;;;-148.56;100.00;61375.16;5005151;28;20029;-30
2021/11/30 02:28:59;;;;;;;1.08;0.57;;;;;;;-148.56;100.00;61375.16;5008412;28;20413;-33
2021/11/30 02:32:24;;;;;;;3.67;1.23;;;;;;;-148.56;100.00;61375.16;5007794;28;20168;-33
2021/11/30 02:35:48;;;;;;;4.72;1.05;;;;;;;-148.56;100.00;61375.16;5006228;28;20690;-35
2021/11/30 02:39:16;;;;;;;3.55;1.00;;;;;;;-148.56;100.00;61375.16;5001288;28;20063;-32
2021/11/30 02:42:40;;;;;;;3.78;1.00;;;;;;;-148.56;100.00;61375.16;5003042;28;20021;-29
2021/11/30 02:46:04;;;;;;;6.32;1.77;;;;;;;-148.56;100.00;61375.16;5006234;28;20040;-34
2021/11/30 02:49:29;;;;;;;3.65;0.60;;;;;;;-148.56;100.00;61375.16;5000669;28;20036;-30
2021/11/30 02:52:58;;;;;;;3.88;0.70;;;;;;;-148.56;100.00;61375.16;5005485;28;20929;-32
2021/11/30 02:56:22;;;;;;;3.70;0.93;;;;;;;-148.56;100.00;61375.16;5006110;28;20045;-32
2021/11/30 02:59:47;;;;;;;2.35;0.70;;;;;;;-148.56;100.00;61375.16;4997913;28;22699;-30
2021/11/30 03:03:17;;;;;;;5.13;0.70;;;;;;;-148.56;100.00;61375.16;5001174;28;20454;-31
2021/11/30 03:06:41;;;;;;;4.80;1.15;;;;;;;-148.56;100.00;61375.16;5003265;28;20048;-29
2021/11/30 03:10:07;;;;;;;1.85;0.60;;;;;;;-148.56;100.00;61375.16;5002470;28;20603;-30
2021/11/30 03:13:31;;;;;;;1.98;0.60;;;;;;;-148.56;100.00;61375.16;5003490;28;20025;-32
2021/11/30 03:16:55;;;;;;;4.35;0.90;;;;;;;-148.56;100.00;61375.16;5000403;28;20029;-31
2021/11/30 03:20:20;;;;;;;2.80;0.95;;;;;;;-148.56;100.00;61375.16;5004374;28;20037;-29
2021/11/30 03:23:44;;;;;;;1.58;0.85;;;;;;;-148.56;100.00;61375.16;5002385;28;20394;-30
2021/11/30 03:27:08;;;;;;;3.03;0.57;;;;;;;-148.56;100.00;61375.16;4996780;28;20025;-33
2021/11/30 03:30:32;;;;;;;0.85;0.55;;;;;;;-148.56;100.00;61375.16;5003120;28;20068;-30
2021/11/30 03:33:59;;;;;;;3.55;0.60;;;;;;;-148.56;100.00;61375.16;5004670;28;20114;-31
2021/11/30 03:37:23;;;;;;;1.23;0.60;;;;;;;-148.56;100.00;61375.16;5007284;28;20034;-31
2021/11/30 03:40:47;;;;;;;0.82;0.60;;;;;;;-148.56;100.00;61375.16;4995905;28;20029;-31
2021/11/30 03:44:11;;;;;;;2.53;0.50;;;;;;;-148.56;100.00;61375.16;5005958;28;20428;-33
2021/11/30 03:47:35;;;;;;;0.98;0.60;;;;;;;-148.56;100.00;61375.16;4999245;28;20082;-32
2021/11/30 03:50:58;;;;;;;2.50;0.77;;;;;;;-148.56;100.00;61375.16;5005969;28;20071;-30
2021/11/30 03:54:22;;;;;;;4.13;0.65;;;;;;;-148.56;100.00;61375.16;5004917;28;20495;-31
2021/11/30 03:57:46;;;;;;;3.47;0.80;;;;;;;-148.56;100.00;61375.16;5005225;28;20025;-29
2021/11/30 04:01:10;;;;;;;2.20;0.70;;;;;;;-148.56;100.00;61375.16;5008022;28;20037;-31
2021/11/30 04:04:40;;;;;;;2.50;0.60;;;;;;;-148.56;100.00;61375.16;5008534;28;20036;-35
2021/11/30 04:08:04;;;;;;;1.88;0.57;;;;;;;-148.56;100.00;61375.16;5009945;28;20044;-33
2021/11/30 04:11:28;;;;;;;1.05;0.40;;;;;;;-148.56;100.00;61375.16;5010614;28;20053;-35
2021/11/30 04:14:52;;;;;;;1.80;0.40;;;;;;;-148.56;100.00;61375.16;5009053;28;20095;-32
2021/11/30 04:18:16;;;;;;;0.85;0.43;;;;;;;-148.56;100.00;61375.16;5010681;28;20036;-32
2021/11/30 04:21:40;;;;;;;1.35;0.70;;;;;;;-148.56;100.00;61375.16;5010650;28;20580;-31
2021/11/30 04:25:04;;;;;;;0.98;0.60;;;;;;;-148.56;100.00;61375.16;5012152;28;20124;-34
2021/11/30 04:28:28;;;;;;;2.53;0.57;;;;;;;-148.56;100.00;61375.16;5010066;28;20021;-31
2021/11/30 04:31:52;;;;;;;2.80;0.63;;;;;;;-148.56;100.00;61375.16;5008753;28;20045;-32
2021/11/30 04:35:16;;;;;;;1.55;0.50;;;;;;;-148.56;100.00;61375.16;5010598;28;20561;-31
2021/11/30 04:38:40;;;;;;;0.85;0.50;;;;;;;-148.56;100.00;61375.16;5008648;28;20120;-30
2021/11/30 04:42:04;;;;;;;1.83;0.50;;;;;;;-148.56;100.00;61375.16;5007591;28;20037;-31
2021/11/30 04:45:34;;;;;;;2.47;0.50;;;;;;;-148.56;100.00;61375.16;5009655;28;20032;-31
2021/11/30 04:49:04;;;;;;;2.28;0.50;;;;;;;-148.56;100.00;61375.16;5011198;28;20738;-33
2021/11/30 04:52:30;;;;;;;1.60;0.50;;;;;;;-148.56;100.00;61375.16;5010704;28;20029;-31
2021/11/30 04:55:54;;;;;;;1.80;0.43;;;;;;;-148.56;100.00;61375.16;5008857;28;20360;-33
2021/11/30 04:59:19;;;;;;;1.25;0.47;;;;;;;-148.56;100.00;61375.16;5010487;28;20695;-34
2021/11/30 05:02:43;;;;;;;0.85;0.50;;;;;;;-148.56;100.00;61375.16;5010581;28;20036;-30
2021/11/30 05:06:10;;;;;;;1.73;0.45;;;;;;;-148.56;100.00;61375.16;5008773;28;20385;-29
2021/11/30 05:09:34;;;;;;;1.65;0.40;;;;;;;-148.56;100.00;61375.16;5011148;28;20487;-33
2021/11/30 05:12:58;;;;;;;1.30;0.40;;;;;;;-148.56;100.00;61375.16;5010353;28;20480;-31
2021/11/30 05:16:22;;;;;;;0.93;0.50;;;;;;;-148.56;100.00;61375.16;5009723;28;20068;-36
2021/11/30 05:19:45;;;;;;;0.50;0.40;;;;;;;-148.56;100.00;61375.16;5010723;28;20279;-29
2021/11/30 05:23:12;;;;;;;2.53;0.32;;;;;;;-148.56;100.00;61375.16;5011689;28;20030;-33
2021/11/30 05:26:36;;;;;;;1.65;0.50;;;;;;;-148.56;100.00;61375.16;5004454;28;20033;-33
2021/11/30 05:30:00;;;;;;;2.17;0.55;;;;;;;-148.56;100.00;61375.16;5004121;28;20040;-32
2021/11/30 05:33:24;;;;;;;2.80;0.70;;;;;;;-148.56;100.00;61375.16;5003557;28;20102;-28
2021/11/30 05:36:48;;;;;;;3.65;0.57;;;;;;;-148.56;100.00;61375.16;5010001;28;20686;-34
2021/11/30 05:40:12;;;;;;;1.92;0.40;;;;;;;-148.56;100.00;61375.16;5024312;28;20398;-30
2021/11/30 05:43:36;;;;;;;0.82;0.52;;;;;;;-148.56;100.00;61375.16;5004756;28;20055;-31
2021/11/30 05:47:00;;;;;;;4.43;0.60;;;;;;;-148.56;100.00;61375.16;5006694;28;20038;-31
2021/11/30 05:50:24;;;;;;;1.23;0.47;;;;;;;-148.56;100.00;61375.16;5009613;28;20108;-40
2021/11/30 05:53:48;;;;;;;2.47;0.30;;;;;;;-148.56;100.00;61375.16;5007216;28;20047;-31
2021/11/30 05:57:17;;;;;;;2.92;0.60;;;;;;;-148.56;100.00;61375.16;5008091;28;20025;-30
2021/11/30 06:00:41;;;;;;;0.70;0.40;;;;;;;-148.56;100.00;61375.16;5008255;28;20037;-30
2021/11/30 06:04:05;;;;;;;0.43;0.32;;;;;;;-148.56;100.00;61375.16;5011363;28;20117;-32
2021/11/30 06:07:30;;;;;;;0.82;0.47;;;;;;;-148.56;100.00;61375.16;5015346;28;20037;-28
2021/11/30 06:10:54;;;;;;;3.30;0.40;;;;;;;-148.56;100.00;61375.16;5008443;28;21185;-32
2021/11/30 06:14:18;;;;;;;0.98;0.40;;;;;;;-148.56;100.00;61375.16;5005654;28;20081;-32
2021/11/30 06:17:42;;;;;;;0.43;0.30;;;;;;;-148.56;100.00;61375.16;5005846;28;20548;-31
2021/11/30 06:21:06;;;;;;;1.73;0.30;;;;;;;-148.56;100.00;61375.16;5005143;28;20112;-31
2021/11/30 06:24:30;;;;;;;1.00;0.40;;;;;;;-148.56;100.00;61375.16;5005242;28;20018;-28
2021/11/30 06:27:54;;;;;;;0.50;0.40;;;;;;;-148.56;100.00;61375.16;5004086;28;20087;-33
2021/11/30 06:31:18;;;;;;;0.47;0.40;;;;;;;-148.56;100.00;61375.16;5000090;28;20120;-32
2021/11/30 06:34:42;;;;;;;0.98;0.45;;;;;;;-148.56;100.00;61375.16;5014168;28;20029;-30
2021/11/30 06:38:06;;;;;;;1.50;0.40;;;;;;;-148.56;100.00;61375.16;5006082;28;20545;-31
2021/11/30 06:41:30;;;;;;;0.38;0.22;;;;;;;-148.56;100.00;61375.16;5006727;28;20108;-28
2021/11/30 06:44:54;;;;;;;0.98;0.35;;;;;;;-148.56;100.00;61375.16;5008827;28;20090;-31
2021/11/30 06:48:20;;;;;;;1.63;0.60;;;;;;;-148.56;100.00;61375.16;5010086;28;20513;-31
2021/11/30 06:51:44;;;;;;;0.80;0.30;;;;;;;-148.56;100.00;61375.16;5007783;28;20029;-33
2021/11/30 06:55:08;;;;;;;8.95;1.20;;;;;;;-148.56;100.00;61375.16;5007489;28;20033;-34
2021/11/30 06:58:32;;;;;;;4.35;0.88;;;;;;;-148.56;100.00;61375.16;5003221;28;20649;-29
2021/11/30 07:01:56;;;;;;;2.65;0.80;;;;;;;-148.56;100.00;61375.16;5000765;28;20159;-30
2021/11/30 07:16:02;;;;;;;0.82;0.30;;;;;;;-148.56;100.00;61375.16;5007422;28;20520;-30
2021/11/30 07:19:28;;;;;;;2.78;0.35;;;;;;;-148.56;100.00;61375.16;5002113;28;20041;-33
2021/11/30 07:22:56;;;;;;;1.58;0.60;;;;;;;-148.56;100.00;61375.16;5008259;28;20059;-30
2021/11/30 07:26:20;;;;;;;0.93;0.30;;;;;;;-148.56;100.00;61375.16;5002609;28;20494;-32
2021/11/30 07:29:43;;;;;;;0.95;0.55;;;;;;;-148.56;100.00;61375.16;5001592;28;20103;-30
2021/11/30 07:33:07;;;;;;;1.02;0.40;;;;;;;-148.56;100.00;61375.16;5020969;28;20063;-32
2021/11/30 07:36:31;;;;;;;1.25;0.60;;;;;;;-148.56;100.00;61375.16;5015465;28;20555;-34
2021/11/30 07:39:55;;;;;;;1.77;0.50;;;;;;;-148.56;100.00;61375.16;5004229;28;20033;-32
2021/11/30 07:43:19;;;;;;;2.65;0.45;;;;;;;-148.56;100.00;61375.16;5007461;28;20040;-32
2021/11/30 07:46:43;;;;;;;1.83;0.50;;;;;;;-148.56;100.00;61375.16;5021581;28;20083;-32
2021/11/30 07:50:07;;;;;;;1.13;0.38;;;;;;;-148.56;100.00;61375.16;5009020;28;20156;-33
2021/11/30 07:53:31;;;;;;;17.70;1.17;;;;;;;-148.56;100.00;61375.16;5006802;28;20134;-29
2021/11/30 07:56:55;;;;;;;7.10;0.65;;;;;;;-148.56;100.00;61375.16;4998213;28;20046;-31
2021/11/30 08:00:19;;;;;;;5.43;0.50;;;;;;;-148.56;100.00;61375.16;5003020;28;20049;-30
2021/11/30 08:03:43;;;;;;;5.30;0.63;;;;;;;-148.56;100.00;61375.16;5006508;28;21036;-31
2021/11/30 08:07:08;;;;;;;3.58;0.40;;;;;;;-148.56;100.00;61375.16;5002734;28;20033;-33
2021/11/30 08:10:32;;;;;;;5.10;0.55;;;;;;;-148.56;100.00;61375.16;5005333;28;20525;-32
2021/11/30 08:13:56;;;;;;;4.80;0.50;;;;;;;-148.56;100.00;61375.16;4997012;28;20041;-28
2021/11/30 08:17:20;;;;;;;4.57;0.70;;;;;;;-148.56;100.00;61375.16;5004588;28;20030;-32
2021/11/30 08:20:44;;;;;;;1.38;0.63;;;;;;;-148.56;100.00;61375.16;5008803;28;20035;-31
2021/11/30 08:24:08;;;;;;;4.55;0.60;;;;;;;-148.56;100.00;61375.16;5001910;28;20042;-32
2021/11/30 08:27:32;;;;;;;2.92;0.50;;;;;;;-148.56;100.00;61375.16;5020719;28;20037;-34
2021/11/30 08:30:56;;;;;;;3.10;0.50;;;;;;;-148.56;100.00;61375.16;5006980;28;20540;-32
2021/11/30 08:34:20;;;;;;;1.52;0.63;;;;;;;-148.56;100.00;61375.16;5004593;28;20069;-30
2021/11/30 08:37:44;;;;;;;2.03;0.40;;;;;;;-148.56;100.00;61375.16;5004705;28;20020;-30
2021/11/30 08:41:08;;;;;;;2.05;1.00;;;;;;;-148.56;100.00;61375.16;4999496;28;20099;-33
2021/11/30 08:44:32;;;;;;;1.55;0.90;;;;;;;-148.56;100.00;61375.16;5003878;28;20125;-32
2021/11/30 08:47:56;;;;;;;3.97;0.82;;;;;;;-148.56;100.00;61375.16;5007772;28;20021;-33
2021/11/30 08:51:20;;;;;;;4.07;0.70;;;;;;;-148.56;100.00;61375.16;5003451;28;20345;-31
2021/11/30 08:54:44;;;;;;;0.85;0.43;;;;;;;-148.56;100.00;61375.16;5005659;28;20044;-33
2021/11/30 08:58:08;;;;;;;2.55;0.70;;;;;;;-148.56;100.00;61375.16;5002281;28;20800;-32
2021/11/30 09:01:32;;;;;;;3.30;0.63;;;;;;;-148.56;100.00;61375.16;5007932;28;20033;-28
2021/11/30 09:04:56;;;;;;;1.65;0.50;;;;;;;-148.56;100.00;61375.16;5002274;28;20734;-29
2021/11/30 09:08:20;;;;;;;1.60;0.60;;;;;;;-148.56;100.00;61375.16;5009549;28;20030;-31
2021/11/30 09:11:44;;;;;;;0.70;0.40;;;;;;;-148.56;100.00;61375.16;5003604;28;20446;-32
2021/11/30 09:15:08;;;;;;;1.10;0.55;;;;;;;-148.56;100.00;61375.16;5004000;28;20057;-27
2021/11/30 09:18:32;;;;;;;1.08;0.50;;;;;;;-148.56;100.00;61375.16;5004620;28;20104;-26
2021/11/30 09:21:56;;;;;;;1.50;0.40;;;;;;;-148.56;100.00;61375.16;5003344;28;20700;-29
2021/11/30 09:25:20;;;;;;;0.88;0.35;;;;;;;-148.56;100.00;61375.16;5005190;28;20042;-34
2021/11/30 09:28:44;;;;;;;1.30;0.38;;;;;;;-148.56;100.00;61375.16;5002508;28;20140;-32
2021/11/30 09:32:10;;;;;;;1.92;0.65;;;;;;;-148.56;100.00;61375.16;5010457;28;20591;-29
2021/11/30 09:35:34;;;;;;;49.67;2.03;;;;;;;-148.56;100.00;61375.16;5001909;28;20040;-30
2021/11/30 09:38:58;;;;;;;32.55;2.22;;;;;;;-148.56;100.00;61375.16;5007712;28;20109;-31
2021/11/30 09:42:23;;;;;;;54.90;2.13;;;;;;;-148.56;100.00;61375.16;5002754;28;20086;-28
2021/11/30 09:45:47;;;;;;;8.15;1.02;;;;;;;-148.56;100.00;61375.16;5003232;28;20156;-29
2021/11/30 09:49:11;;;;;;;1.33;0.77;;;;;;;-148.56;100.00;61375.16;5001716;28;20142;-30
2021/11/30 09:52:35;;;;;;;1.50;0.50;;;;;;;-148.56;100.00;61375.16;5000568;28;20032;-30
2021/11/30 09:56:00;;;;;;;3.55;1.13;;;;;;;-148.56;100.00;61375.16;5002511;28;20109;-32
2021/11/30 09:59:23;;;;;;;2.75;0.95;;;;;;;-148.56;100.00;61375.16;5004666;28;20051;-34
2021/11/30 10:02:48;;;;;;;1.30;0.55;;;;;;;-148.56;100.00;61375.16;5002191;28;20167;-31
2021/11/30 10:06:11;;;;;;;4.00;0.68;;;;;;;-148.56;100.00;61375.16;5006468;28;20029;-29
2021/11/30 10:09:40;;;;;;;2.50;0.50;;;;;;;-148.56;100.00;61375.16;5001968;28;20365;-32
2021/11/30 10:13:04;;;;;;;1.33;0.50;;;;;;;-148.56;100.00;61375.16;5003131;28;20032;-27
2021/11/30 10:16:29;;;;;;;15.52;0.82;;;;;;;-148.56;100.00;61375.16;5000775;28;20061;-29
2021/11/30 10:19:58;;;;;;;7.07;1.10;;;;;;;-148.56;100.00;61375.16;5006674;28;20035;-30
2021/11/30 10:23:52;;;;;;;12.13;1.05;;;;;;;-148.56;100.00;61375.16;5004531;28;20030;-32
2021/11/30 10:27:27;;;;;;;11.57;1.40;;;;;;;-148.56;100.00;61375.16;5002006;28;20028;-32
2021/11/30 10:30:51;;;;;;;3.78;1.40;;;;;;;-148.56;100.00;61375.16;4996693;28;20028;-30
2021/11/30 10:34:16;;;;;;;7.75;1.88;;;;;;;-148.56;100.00;61375.16;5004625;28;20037;-31
2021/11/30 10:37:50;;;;;;;4.10;1.10;;;;;;;-148.56;100.00;61375.16;5006509;28;20061;-30
2021/11/30 10:41:24;;;;;;;4.82;1.20;;;;;;;-148.56;100.00;61375.16;5006204;28;20030;-31
2021/11/30 10:44:53;;;;;;;6.32;1.05;;;;;;;-148.56;100.00;61375.16;5001938;28;20367;-32
2021/11/30 10:48:17;;;;;;;4.32;1.77;;;;;;;-148.56;100.00;61375.16;5000462;28;20092;-31
2021/11/30 10:51:46;;;;;;;3.97;1.40;;;;;;;-148.56;100.00;61375.16;5006727;28;20947;-27
2021/11/30 10:55:13;;;;;;;10.30;1.45;;;;;;;-148.56;100.00;61375.16;5002140;28;20037;-29
2021/11/30 10:58:37;;;;;;;2.10;1.02;;;;;;;-148.56;100.00;61375.16;5004231;28;20124;-32
2021/11/30 11:02:06;;;;;;;6.43;1.20;;;;;;;-148.56;100.00;61375.16;5001774;28;20052;-29
2021/11/30 11:05:31;;;;;;;6.28;1.83;;;;;;;-148.56;100.00;61375.16;5003852;28;20022;-28
2021/11/30 11:09:14;;;;;;;10.93;2.30;;;;;;;-148.56;100.00;61375.16;5001673;28;21301;-29
2021/11/30 11:12:38;;;;;;;8.25;2.40;;;;;;;-148.56;100.00;61375.16;5000829;28;20071;-29
2021/11/30 11:16:04;;;;;;;8.38;2.63;;;;;;;-148.56;100.00;61375.16;4998777;28;20041;-27
2021/11/30 11:19:40;;;;;;;12.73;2.90;;;;;;;-148.56;100.00;61375.16;5005058;28;20037;-30
2021/11/30 11:23:23;;;;;;;13.65;2.83;;;;;;;-148.56;100.00;61375.16;5005029;28;20571;-30
2021/11/30 11:26:50;;;;;;;12.40;3.00;;;;;;;-148.56;100.00;61375.16;5014147;28;20477;-29
2021/11/30 11:30:17;;;;;;;9.50;2.70;;;;;;;-148.56;100.00;61375.16;5004454;28;20028;-31
2021/11/30 11:33:41;;;;;;;6.95;2.45;;;;;;;-148.56;100.00;61375.16;4999090;28;20040;-29
2021/11/30 11:37:09;;;;;;;7.60;2.08;;;;;;;-148.56;100.00;61375.16;4999347;28;20056;-31
2021/11/30 11:40:33;;;;;;;6.22;2.28;;;;;;;-148.56;100.00;61375.16;5016609;28;20064;-30
2021/11/30 11:43:58;;;;;;;10.35;2.33;;;;;;;-148.56;100.00;61375.16;5001164;28;20053;-30
2021/11/30 11:47:23;;;;;;;6.32;2.20;;;;;;;-148.56;100.00;61375.16;5007933;28;20029;-30
2021/11/30 11:50:55;;;;;;;5.60;1.90;;;;;;;-148.56;100.00;61375.16;5006478;28;20048;-27
2021/11/30 11:54:29;;;;;;;6.10;1.60;;;;;;;-148.56;100.00;61375.16;5003219;28;20029;-29
2021/11/30 11:57:57;;;;;;;9.30;2.33;;;;;;;-148.56;100.00;61375.16;5002849;28;20045;-29
2021/11/30 12:01:22;;;;;;;8.85;2.22;;;;;;;-148.56;100.00;61375.16;5002555;28;20031;-29
2021/11/30 12:04:50;;;;;;;6.25;1.95;;;;;;;-148.56;100.00;61375.16;5013170;28;20032;-29
2021/11/30 12:08:19;;;;;;;5.18;1.98;;;;;;;-148.56;100.00;61375.16;5003814;28;20124;-30
2021/11/30 12:11:47;;;;;;;6.88;1.88;;;;;;;-148.56;100.00;61375.16;5004634;28;20030;-30
2021/11/30 12:15:11;;;;;;;6.78;2.00;;;;;;;-148.56;100.00;61375.16;5004781;28;20025;-29
2021/11/30 12:18:42;;;;;;;4.32;1.50;;;;;;;-148.56;100.00;61375.16;5004842;28;20044;-31
2021/11/30 12:22:35;;;;;;;5.72;1.40;;;;;;;-148.56;100.00;61375.16;4988965;28;20180;-26
2021/11/30 12:26:00;;;;;;;4.95;1.73;;;;;;;-148.56;100.00;61375.16;5007179;28;20069;-31
2021/11/30 12:29:30;;;;;;;7.18;1.98;;;;;;;-148.56;100.00;61375.16;5012416;28;20044;-30
2021/11/30 12:32:55;;;;;;;6.32;1.45;;;;;;;-148.56;100.00;61375.16;5001309;28;20029;-30
2021/11/30 12:36:23;;;;;;;4.55;1.83;;;;;;;-148.56;100.00;61375.16;5005451;28;20585;-29
2021/11/30 12:39:55;;;;;;;6.43;1.73;;;;;;;-148.56;100.00;61375.16;5017321;28;20759;-27
2021/11/30 12:43:24;;;;;;;7.28;1.63;;;;;;;-148.56;100.00;61375.16;5008856;28;20075;-29
2021/11/30 12:46:50;;;;;;;5.53;1.50;;;;;;;-148.56;100.00;61375.16;5005489;28;20045;-32
2021/11/30 12:50:26;;;;;;;5.25;1.70;;;;;;;-148.56;100.00;61375.16;5006972;28;20056;-32
2021/11/30 12:54:00;;;;;;;4.20;1.63;;;;;;;-148.56;100.00;61375.16;5011382;28;20528;-31
2021/11/30 12:58:02;;;;;;;3.78;1.20;;;;;;;-148.56;100.00;61375.16;5005362;28;20041;-31
2021/11/30 13:01:26;;;;;;;2.58;1.20;;;;;;;-148.56;100.00;61375.16;5024996;28;20036;-30
2021/11/30 13:05:10;;;;;;;6.45;1.30;;;;;;;-148.56;100.00;61375.16;5016055;28;20462;-29
2021/11/30 13:09:02;;;;;;;10.07;1.42;;;;;;;-148.56;100.00;61375.16;5005999;28;20772;-30
2021/11/30 13:12:28;;;;;;;4.60;1.40;;;;;;;-148.56;100.00;61375.16;5005691;28;20088;-30
2021/11/30 13:15:59;;;;;;;4.22;1.60;;;;;;;-148.56;100.00;61375.16;5003880;28;20064;-30
2021/11/30 13:19:25;;;;;;;4.45;1.10;;;;;;;-148.56;100.00;61375.16;4995512;28;20041;-29
2021/11/30 13:22:48;;;;;;;3.55;1.35;;;;;;;-148.56;100.00;61375.16;5011626;28;20033;-30
2021/11/30 13:26:17;;;;;;;3.95;1.23;;;;;;;-148.56;100.00;61375.16;5011411;28;20030;-28
2021/11/30 13:29:51;;;;;;;10.23;6.43;;;;;;;-148.56;100.00;61375.16;5004303;28;20264;-30
2021/11/30 13:33:22;;;;;;;26.27;13.48;;;;;;;-148.56;100.00;61375.16;5004564;28;20126;-30
2021/11/30 13:36:46;;;;;;;120.40;62.33;;;;;;;-148.56;100.00;61375.16;5003514;28;20022;-29
2021/11/30 13:40:10;;;;;;;169.23;92.03;;;;;;;-148.56;100.00;61375.16;5003989;28;20021;-31
2021/11/30 13:43:55;;;;;;;199.80;110.05;;;;;;;-148.56;100.00;61375.16;5007863;28;20029;-30
2021/11/30 13:47:20;;;;;;;197.65;107.10;;;;;;;-148.56;100.00;61375.16;5002728;28;20061;-29
2021/11/30 13:50:45;;;;;;;121.43;68.93;;;;;;;-148.56;100.00;61375.16;5002824;28;20025;-29
2021/11/30 13:54:17;;;;;;;101.85;56.65;;;;;;;-148.56;100.00;61375.16;5003441;28;20576;-31
2021/11/30 13:57:43;;;;;;;180.75;96.80;;;;;;;-148.56;100.00;61375.16;4994751;28;20137;-29
2021/11/30 14:01:33;;;;;;;180.32;91.63;;;;;;;-148.56;100.00;61375.16;5007549;28;20037;-30
2021/11/30 14:04:58;;;;;;;159.00;87.28;;;;;;;-148.56;100.00;61375.16;5010230;28;20394;-31
2021/11/30 14:08:22;;;;;;;148.88;82.57;;;;;;;-148.56;100.00;61375.16;5016286;28;20504;-32
2021/11/30 14:11:47;;;;;;;142.48;77.35;;;;;;;-148.56;100.00;61375.16;5002216;28;20022;-33
2021/11/30 14:15:12;;;;;;;127.25;73.35;;;;;;;-148.56;100.00;61375.16;5024602;28;20030;-34
2021/11/30 14:18:55;;;;;;;126.63;67.15;;;;;;;-148.56;100.00;61375.16;5009982;28;20025;-30
2021/11/30 14:22:20;;;;;;;114.78;62.67;;;;;;;-148.56;100.00;61375.16;5012610;28;20037;-31
2021/11/30 14:25:54;;;;;;;124.90;58.97;;;;;;;-148.56;100.00;61375.16;5010279;28;20465;-33
2021/11/30 14:29:21;;;;;;;100.30;54.83;;;;;;;-148.56;100.00;61375.16;5009347;28;20029;-31
2021/11/30 14:33:11;;;;;;;98.63;52.83;;;;;;;-148.56;100.00;61375.16;5005860;28;20028;-31
2021/11/30 14:36:40;;;;;;;93.30;49.58;;;;;;;-148.56;100.00;61375.16;5007209;28;20021;-29
2021/11/30 14:40:19;;;;;;;81.70;44.47;;;;;;;-148.56;100.00;61375.16;5010723;28;20039;-31
2021/11/30 14:43:47;;;;;;;73.57;42.65;;;;;;;-148.56;100.00;61375.16;5004611;28;20109;-28
2021/11/30 14:47:15;;;;;;;68.88;40.28;;;;;;;-148.56;100.00;61375.16;5006726;28;20071;-30
2021/11/30 14:50:52;;;;;;;66.72;36.78;;;;;;;-148.56;100.00;61375.16;5010335;28;20069;-33
2021/11/30 14:54:16;;;;;;;62.42;35.03;;;;;;;-148.56;100.00;61375.16;5008929;28;20029;-32
2021/11/30 14:57:40;;;;;;;59.25;32.80;;;;;;;-148.56;100.00;61375.16;5009338;28;20029;-33
2021/11/30 15:01:10;;;;;;;53.33;31.08;;;;;;;-148.56;100.00;61375.16;5006701;28;20103;-32
2021/11/30 15:04:36;;;;;;;50.80;29.10;;;;;;;-148.56;100.00;61375.16;5016085;28;20649;-31
2021/11/30 15:08:21;;;;;;;45.90;26.63;;;;;;;-148.56;100.00;61375.16;5009225;28;20026;-31
2021/11/30 15:11:56;;;;;;;43.92;24.42;;;;;;;-148.56;100.00;61375.16;5007516;28;20033;-32
2021/11/30 15:15:21;;;;;;;40.95;23.38;;;;;;;-148.56;100.00;61375.16;5015548;28;20029;-29
2021/11/30 15:19:00;;;;;;;36.30;21.73;;;;;;;-148.56;100.00;61375.16;5003816;28;20033;-31
2021/11/30 15:22:24;;;;;;;38.67;21.48;;;;;;;-148.56;100.00;61375.16;5007927;28;20041;-30
2021/11/30 15:25:59;;;;;;;32.00;19.13;;;;;;;-148.56;100.00;61375.16;5006582;28;20036;-33
2021/11/30 15:29:24;;;;;;;30.98;18.27;;;;;;;-148.56;100.00;61375.16;5014668;28;20802;-32
2021/11/30 15:32:48;;;;;;;27.38;16.35;;;;;;;-148.56;100.00;61375.16;5007681;28;20021;-28
2021/11/30 15:36:12;;;;;;;29.20;16.27;;;;;;;-148.56;100.00;61375.16;5006946;28;20528;-31
2021/11/30 15:39:36;;;;;;;28.77;15.65;;;;;;;-148.56;100.00;61375.16;5007987;28;20501;-30
2021/11/30 15:43:02;;;;;;;27.73;15.23;;;;;;;-148.56;100.00;61375.16;5007532;28;20052;-32
2021/11/30 15:46:26;;;;;;;25.02;13.80;;;;;;;-148.56;100.00;61375.16;5006942;28;20033;-30
2021/11/30 15:49:50;;;;;;;20.73;12.88;;;;;;;-148.56;100.00;61375.16;5006699;28;20108;-29
2021/11/30 15:53:14;;;;;;;21.67;12.82;;;;;;;-148.56;100.00;61375.16;5022574;28;20443;-31